sensor_id;sensor_type;location;lat;lon;timestamp;temperature;humidity
3488;DHT22;38546;48.170;11.724;2023-02-15T00:02:32;-0.70;99.90
3488;DHT22;38546;48.170;11.724;2023-02-15T00:05:21;-0.60;99.90
3488;DHT22;38546;48.170;11.724;2023-02-15T00:08:10;-0.90;99.90
3488;DHT22;38546;48.170;11.724;2023-02-15T00:11:11;-0.80;99.90
3488;DHT22;38546;48.170;11.724;2023-02-15T00:14:01;-0.80;99.90
3488;DHT22;38546;48.170;11.724;2023-02-15T00:16:52;-0.70;99.90
3488;DHT22;38546;48.170;11.724;2023-02-15T00:19:43;-0.60;99.90
3488;DHT22;38546;48.170;11.724;2023-02-15T00:22:33;-0.50;99.90
3488;DHT22;38546;48.170;11.724;2023-02-15T00:25:22;-0.50;99.90
3488;DHT22;38546;48.170;11.724;2023-02-15T00:28:11;-0.40;99.90
3488;DHT22;38546;48.170;11.724;2023-02-15T00:31:08;-0.50;99.90
3488;DHT22;38546;48.170;11.724;2023-02-15T00:34:23;-0.50;99.90
3488;DHT22;38546;48.170;11.724;2023-02-15T00:37:14;-0.60;99.90
3488;DHT22;38546;48.170;11.724;2023-02-15T00:40:04;-0.50;99.90
3488;DHT22;38546;48.170;11.724;2023-02-15T00:42:55;-0.50;99.90
3488;DHT22;38546;48.170;11.724;2023-02-15T00:45:45;-0.60;99.90
3488;DHT22;38546;48.170;11.724;2023-02-15T00:48:35;-0.50;99.90
3488;DHT22;38546;48.170;11.724;2023-02-15T00:51:24;-0.50;99.90
3488;DHT22;38546;48.170;11.724;2023-02-15T00:54:14;-0.50;99.90
3488;DHT22;38546;48.170;11.724;2023-02-15T00:57:03;-0.50;99.90
3488;DHT22;38546;48.170;11.724;2023-02-15T00:59:52;-0.50;99.90
3488;DHT22;38546;48.170;11.724;2023-02-15T01:02:42;-0.50;99.90
3488;DHT22;38546;48.170;11.724;2023-02-15T01:05:31;-0.50;99.90
3488;DHT22;38546;48.170;11.724;2023-02-15T01:08:21;-0.50;99.90
3488;DHT22;38546;48.170;11.724;2023-02-15T01:11:13;-0.50;99.90
3488;DHT22;38546;48.170;11.724;2023-02-15T01:14:04;-0.60;99.90
3488;DHT22;38546;48.170;11.724;2023-02-15T01:16:54;-0.60;99.90
3488;DHT22;38546;48.170;11.724;2023-02-15T01:19:44;-0.60;99.90
3488;DHT22;38546;48.170;11.724;2023-02-15T01:22:33;-0.60;99.90
3488;DHT22;38546;48.170;11.724;2023-02-15T01:25:23;-0.60;99.90
3488;DHT22;38546;48.170;11.724;2023-02-15T01:28:13;-0.60;99.90
3488;DHT22;38546;48.170;11.724;2023-02-15T01:31:11;-0.60;99.90
3488;DHT22;38546;48.170;11.724;2023-02-15T01:34:02;-0.60;99.90
3488;DHT22;38546;48.170;11.724;2023-02-15T01:36:51;-0.40;99.90
3488;DHT22;38546;48.170;11.724;2023-02-15T01:39:41;-0.50;99.90
3488;DHT22;38546;48.170;11.724;2023-02-15T01:42:30;-0.60;99.90
3488;DHT22;38546;48.170;11.724;2023-02-15T01:45:29;-0.60;99.90
3488;DHT22;38546;48.170;11.724;2023-02-15T01:48:23;-0.60;99.90
3488;DHT22;38546;48.170;11.724;2023-02-15T01:51:18;-0.70;99.90
3488;DHT22;38546;48.170;11.724;2023-02-15T01:54:17;-0.70;99.90
3488;DHT22;38546;48.170;11.724;2023-02-15T01:57:13;-0.70;99.90
3488;DHT22;38546;48.170;11.724;2023-02-15T02:00:07;-0.70;99.90
3488;DHT22;38546;48.170;11.724;2023-02-15T02:02:57;-0.60;99.90
3488;DHT22;38546;48.170;11.724;2023-02-15T02:05:47;-0.60;99.90
3488;DHT22;38546;48.170;11.724;2023-02-15T02:08:36;-0.70;99.90
3488;DHT22;38546;48.170;11.724;2023-02-15T02:11:26;-0.70;99.90
3488;DHT22;38546;48.170;11.724;2023-02-15T02:14:16;-0.70;99.90
3488;DHT22;38546;48.170;11.724;2023-02-15T02:27:37;-0.70;99.90
3488;DHT22;38546;48.170;11.724;2023-02-15T02:43:52;-0.80;99.90
3488;DHT22;38546;48.170;11.724;2023-02-15T02:50:24;-0.80;99.90
3488;DHT22;38546;48.170;11.724;2023-02-15T02:53:15;-0.80;99.90
3488;DHT22;38546;48.170;11.724;2023-02-15T02:56:16;-0.90;99.90
3488;DHT22;38546;48.170;11.724;2023-02-15T02:59:15;-0.90;99.90
3488;DHT22;38546;48.170;11.724;2023-02-15T03:02:20;-0.90;99.90
3488;DHT22;38546;48.170;11.724;2023-02-15T03:05:16;-0.80;99.90
3488;DHT22;38546;48.170;11.724;2023-02-15T03:08:09;-0.80;99.90
3488;DHT22;38546;48.170;11.724;2023-02-15T03:11:00;-0.80;99.90
3488;DHT22;38546;48.170;11.724;2023-02-15T03:13:51;-0.80;99.90
3488;DHT22;38546;48.170;11.724;2023-02-15T03:16:41;-0.80;99.90
3488;DHT22;38546;48.170;11.724;2023-02-15T03:19:34;-0.80;99.90
3488;DHT22;38546;48.170;11.724;2023-02-15T03:22:36;-0.80;99.90
3488;DHT22;38546;48.170;11.724;2023-02-15T03:26:05;-0.80;99.90
3488;DHT22;38546;48.170;11.724;2023-02-15T03:28:57;-0.80;99.90
3488;DHT22;38546;48.170;11.724;2023-02-15T03:31:53;-0.80;99.90
3488;DHT22;38546;48.170;11.724;2023-02-15T03:34:45;-0.80;99.90
3488;DHT22;38546;48.170;11.724;2023-02-15T03:37:41;-0.80;99.90
3488;DHT22;38546;48.170;11.724;2023-02-15T03:40:38;-0.70;99.90
3488;DHT22;38546;48.170;11.724;2023-02-15T03:44:18;-0.70;99.90
3488;DHT22;38546;48.170;11.724;2023-02-15T03:47:19;-0.70;99.90
3488;DHT22;38546;48.170;11.724;2023-02-15T03:50:15;-0.80;99.90
3488;DHT22;38546;48.170;11.724;2023-02-15T03:53:26;-0.90;99.90
3488;DHT22;38546;48.170;11.724;2023-02-15T03:56:16;-0.90;99.90
3488;DHT22;38546;48.170;11.724;2023-02-15T03:59:05;-0.90;99.90
3488;DHT22;38546;48.170;11.724;2023-02-15T04:02:26;-0.70;99.90
3488;DHT22;38546;48.170;11.724;2023-02-15T04:05:20;-0.80;99.90
3488;DHT22;38546;48.170;11.724;2023-02-15T04:08:11;-0.80;99.90
3488;DHT22;38546;48.170;11.724;2023-02-15T04:11:01;-1.00;99.90
3488;DHT22;38546;48.170;11.724;2023-02-15T04:13:51;-1.10;99.90
3488;DHT22;38546;48.170;11.724;2023-02-15T04:16:45;-1.10;99.90
3488;DHT22;38546;48.170;11.724;2023-02-15T04:19:35;-1.20;99.90
3488;DHT22;38546;48.170;11.724;2023-02-15T04:22:44;-1.20;99.90
3488;DHT22;38546;48.170;11.724;2023-02-15T04:25:53;-1.30;99.90
3488;DHT22;38546;48.170;11.724;2023-02-15T04:28:42;-1.30;99.90
3488;DHT22;38546;48.170;11.724;2023-02-15T04:31:31;-1.30;99.90
3488;DHT22;38546;48.170;11.724;2023-02-15T04:34:21;-1.30;99.90
3488;DHT22;38546;48.170;11.724;2023-02-15T04:37:10;-1.20;99.90
3488;DHT22;38546;48.170;11.724;2023-02-15T04:39:59;-1.20;99.90
3488;DHT22;38546;48.170;11.724;2023-02-15T04:42:48;-1.10;99.90
3488;DHT22;38546;48.170;11.724;2023-02-15T04:45:38;-1.20;99.90
3488;DHT22;38546;48.170;11.724;2023-02-15T04:48:27;-1.20;99.90
3488;DHT22;38546;48.170;11.724;2023-02-15T04:51:16;-1.20;99.90
3488;DHT22;38546;48.170;11.724;2023-02-15T04:54:05;-1.30;99.90
3488;DHT22;38546;48.170;11.724;2023-02-15T04:56:54;-1.30;99.90
3488;DHT22;38546;48.170;11.724;2023-02-15T04:59:44;-1.30;99.90
3488;DHT22;38546;48.170;11.724;2023-02-15T05:02:33;-1.40;99.90
3488;DHT22;38546;48.170;11.724;2023-02-15T05:05:22;-1.50;99.90
3488;DHT22;38546;48.170;11.724;2023-02-15T05:08:12;-1.40;99.90
3488;DHT22;38546;48.170;11.724;2023-02-15T05:11:01;-1.40;99.90
3488;DHT22;38546;48.170;11.724;2023-02-15T05:13:50;-1.30;99.90
3488;DHT22;38546;48.170;11.724;2023-02-15T05:16:39;-1.30;99.90
3488;DHT22;38546;48.170;11.724;2023-02-15T05:19:29;-1.30;99.90
3488;DHT22;38546;48.170;11.724;2023-02-15T05:22:18;-1.20;99.90
3488;DHT22;38546;48.170;11.724;2023-02-15T05:25:08;-1.10;99.90
3488;DHT22;38546;48.170;11.724;2023-02-15T05:28:16;-1.00;99.90
3488;DHT22;38546;48.170;11.724;2023-02-15T05:31:17;-1.10;99.90
3488;DHT22;38546;48.170;11.724;2023-02-15T05:34:07;-1.10;99.90
3488;DHT22;38546;48.170;11.724;2023-02-15T05:36:56;-1.10;99.90
3488;DHT22;38546;48.170;11.724;2023-02-15T05:39:45;-1.00;99.90
3488;DHT22;38546;48.170;11.724;2023-02-15T05:42:34;-1.10;99.90
3488;DHT22;38546;48.170;11.724;2023-02-15T05:45:23;-1.10;99.90
3488;DHT22;38546;48.170;11.724;2023-02-15T05:48:13;-1.10;99.90
3488;DHT22;38546;48.170;11.724;2023-02-15T05:51:07;-1.00;99.90
3488;DHT22;38546;48.170;11.724;2023-02-15T05:53:58;-1.00;99.90
3488;DHT22;38546;48.170;11.724;2023-02-15T05:56:47;-0.90;99.90
3488;DHT22;38546;48.170;11.724;2023-02-15T05:59:36;-0.70;99.90
3488;DHT22;38546;48.170;11.724;2023-02-15T06:02:25;-0.80;99.90
3488;DHT22;38546;48.170;11.724;2023-02-15T06:05:15;-1.00;99.90
3488;DHT22;38546;48.170;11.724;2023-02-15T06:08:04;-1.00;99.90
3488;DHT22;38546;48.170;11.724;2023-02-15T06:10:53;-1.10;99.90
3488;DHT22;38546;48.170;11.724;2023-02-15T06:13:42;-1.20;99.90
3488;DHT22;38546;48.170;11.724;2023-02-15T06:16:32;-1.20;99.90
3488;DHT22;38546;48.170;11.724;2023-02-15T06:19:22;-1.10;99.90
3488;DHT22;38546;48.170;11.724;2023-02-15T06:22:11;-1.10;99.90
3488;DHT22;38546;48.170;11.724;2023-02-15T06:25:03;-1.10;99.90
3488;DHT22;38546;48.170;11.724;2023-02-15T06:27:52;-1.10;99.90
3488;DHT22;38546;48.170;11.724;2023-02-15T06:30:41;-1.10;99.90
3488;DHT22;38546;48.170;11.724;2023-02-15T06:33:30;-1.10;99.90
3488;DHT22;38546;48.170;11.724;2023-02-15T06:36:21;-1.10;99.90
3488;DHT22;38546;48.170;11.724;2023-02-15T06:39:10;-1.10;99.90
3488;DHT22;38546;48.170;11.724;2023-02-15T06:41:59;-1.10;99.90
3488;DHT22;38546;48.170;11.724;2023-02-15T06:44:49;-1.10;99.90
3488;DHT22;38546;48.170;11.724;2023-02-15T06:47:38;-1.00;99.90
3488;DHT22;38546;48.170;11.724;2023-02-15T06:50:27;-1.00;99.90
3488;DHT22;38546;48.170;11.724;2023-02-15T06:53:16;-0.90;99.90
3488;DHT22;38546;48.170;11.724;2023-02-15T06:56:07;-1.00;99.90
3488;DHT22;38546;48.170;11.724;2023-02-15T06:58:57;-0.90;99.90
3488;DHT22;38546;48.170;11.724;2023-02-15T07:01:47;-0.90;99.90
3488;DHT22;38546;48.170;11.724;2023-02-15T07:04:38;-0.90;99.90
3488;DHT22;38546;48.170;11.724;2023-02-15T07:07:27;-1.00;99.90
3488;DHT22;38546;48.170;11.724;2023-02-15T07:10:18;-1.00;99.90
3488;DHT22;38546;48.170;11.724;2023-02-15T07:13:07;-1.00;99.90
3488;DHT22;38546;48.170;11.724;2023-02-15T07:15:56;-0.90;99.90
3488;DHT22;38546;48.170;11.724;2023-02-15T07:18:46;-1.00;99.90
3488;DHT22;38546;48.170;11.724;2023-02-15T07:21:36;-0.90;99.90
3488;DHT22;38546;48.170;11.724;2023-02-15T07:24:25;-0.90;99.90
3488;DHT22;38546;48.170;11.724;2023-02-15T07:27:14;-0.90;99.90
3488;DHT22;38546;48.170;11.724;2023-02-15T07:30:05;-1.00;99.90
3488;DHT22;38546;48.170;11.724;2023-02-15T07:32:57;-0.90;99.90
3488;DHT22;38546;48.170;11.724;2023-02-15T07:36:06;-0.90;99.90
3488;DHT22;38546;48.170;11.724;2023-02-15T07:38:56;-0.80;99.90
3488;DHT22;38546;48.170;11.724;2023-02-15T07:41:44;-0.80;99.90
3488;DHT22;38546;48.170;11.724;2023-02-15T07:44:33;-0.80;99.90
3488;DHT22;38546;48.170;11.724;2023-02-15T07:47:23;-0.80;99.90
3488;DHT22;38546;48.170;11.724;2023-02-15T07:50:12;-0.90;99.90
3488;DHT22;38546;48.170;11.724;2023-02-15T07:53:01;-0.80;99.90
3488;DHT22;38546;48.170;11.724;2023-02-15T07:55:52;-0.70;99.90
3488;DHT22;38546;48.170;11.724;2023-02-15T07:58:41;-0.80;99.90
3488;DHT22;38546;48.170;11.724;2023-02-15T08:01:42;-0.70;99.90
3488;DHT22;38546;48.170;11.724;2023-02-15T08:04:32;-0.60;99.90
3488;DHT22;38546;48.170;11.724;2023-02-15T08:07:21;-0.60;99.90
3488;DHT22;38546;48.170;11.724;2023-02-15T08:10:10;-0.50;99.90
3488;DHT22;38546;48.170;11.724;2023-02-15T08:14:19;-0.60;99.90
3488;DHT22;38546;48.170;11.724;2023-02-15T08:17:10;-0.50;99.90
3488;DHT22;38546;48.170;11.724;2023-02-15T08:19:59;-0.50;99.90
3488;DHT22;38546;48.170;11.724;2023-02-15T08:22:48;-0.50;99.90
3488;DHT22;38546;48.170;11.724;2023-02-15T08:25:37;-0.50;99.90
3488;DHT22;38546;48.170;11.724;2023-02-15T08:28:26;-0.40;99.90
3488;DHT22;38546;48.170;11.724;2023-02-15T08:31:16;-0.30;99.90
3488;DHT22;38546;48.170;11.724;2023-02-15T08:34:06;-0.30;99.90
3488;DHT22;38546;48.170;11.724;2023-02-15T08:37:01;-0.30;99.90
3488;DHT22;38546;48.170;11.724;2023-02-15T08:39:50;-0.30;99.90
3488;DHT22;38546;48.170;11.724;2023-02-15T08:42:39;-0.30;99.90
3488;DHT22;38546;48.170;11.724;2023-02-15T08:45:28;-0.10;99.90
3488;DHT22;38546;48.170;11.724;2023-02-15T08:48:18;-0.10;99.90
3488;DHT22;38546;48.170;11.724;2023-02-15T08:51:18;-0.10;99.90
3488;DHT22;38546;48.170;11.724;2023-02-15T08:54:14;0.00;99.90
3488;DHT22;38546;48.170;11.724;2023-02-15T08:57:05;0.10;99.90
3488;DHT22;38546;48.170;11.724;2023-02-15T08:59:55;0.10;99.90
3488;DHT22;38546;48.170;11.724;2023-02-15T09:02:45;0.10;99.90
3488;DHT22;38546;48.170;11.724;2023-02-15T09:05:34;0.20;99.90
3488;DHT22;38546;48.170;11.724;2023-02-15T09:08:24;0.20;99.90
3488;DHT22;38546;48.170;11.724;2023-02-15T09:11:26;0.20;99.90
3488;DHT22;38546;48.170;11.724;2023-02-15T09:14:19;0.30;99.90
3488;DHT22;38546;48.170;11.724;2023-02-15T09:17:09;0.40;99.90
3488;DHT22;38546;48.170;11.724;2023-02-15T09:19:58;0.40;99.90
3488;DHT22;38546;48.170;11.724;2023-02-15T09:22:47;0.50;99.90
3488;DHT22;38546;48.170;11.724;2023-02-15T09:25:36;0.50;99.90
3488;DHT22;38546;48.170;11.724;2023-02-15T09:28:26;0.50;99.90
3488;DHT22;38546;48.170;11.724;2023-02-15T09:31:17;0.50;99.90
3488;DHT22;38546;48.170;11.724;2023-02-15T09:34:13;0.60;99.90
3488;DHT22;38546;48.170;11.724;2023-02-15T09:37:05;0.70;99.90
3488;DHT22;38546;48.170;11.724;2023-02-15T09:39:55;0.80;99.90
3488;DHT22;38546;48.170;11.724;2023-02-15T09:49:24;1.00;99.90
3488;DHT22;38546;48.170;11.724;2023-02-15T10:17:03;1.60;99.90
3488;DHT22;38546;48.170;11.724;2023-02-15T10:24:58;1.80;99.90
3488;DHT22;38546;48.170;11.724;2023-02-15T10:28:20;1.90;99.90
3488;DHT22;38546;48.170;11.724;2023-02-15T10:36:20;2.20;99.90
3488;DHT22;38546;48.170;11.724;2023-02-15T10:47:25;2.20;99.90
3488;DHT22;38546;48.170;11.724;2023-02-15T10:50:47;2.20;99.90
3488;DHT22;38546;48.170;11.724;2023-02-15T11:00:17;2.10;99.90
3488;DHT22;38546;48.170;11.724;2023-02-15T11:03:31;2.60;99.90
3488;DHT22;38546;48.170;11.724;2023-02-15T11:06:26;2.80;99.90
3488;DHT22;38546;48.170;11.724;2023-02-15T11:09:16;2.90;99.90
3488;DHT22;38546;48.170;11.724;2023-02-15T11:12:12;3.10;99.90
3488;DHT22;38546;48.170;11.724;2023-02-15T11:16:03;3.50;99.90
3488;DHT22;38546;48.170;11.724;2023-02-15T11:18:59;3.60;99.90
3488;DHT22;38546;48.170;11.724;2023-02-15T11:21:58;3.30;99.90
3488;DHT22;38546;48.170;11.724;2023-02-15T11:24:49;3.10;99.90
3488;DHT22;38546;48.170;11.724;2023-02-15T11:27:38;3.00;99.90
3488;DHT22;38546;48.170;11.724;2023-02-15T11:30:38;3.30;99.90
3488;DHT22;38546;48.170;11.724;2023-02-15T11:33:40;3.20;99.90
3488;DHT22;38546;48.170;11.724;2023-02-15T11:36:34;3.20;99.90
3488;DHT22;38546;48.170;11.724;2023-02-15T11:39:27;3.20;99.90
3488;DHT22;38546;48.170;11.724;2023-02-15T11:42:21;3.20;99.90
3488;DHT22;38546;48.170;11.724;2023-02-15T11:45:25;3.00;99.90
3488;DHT22;38546;48.170;11.724;2023-02-15T11:48:19;3.10;99.90
3488;DHT22;38546;48.170;11.724;2023-02-15T11:51:11;2.90;99.90
3488;DHT22;38546;48.170;11.724;2023-02-15T11:54:04;3.00;99.90
3488;DHT22;38546;48.170;11.724;2023-02-15T11:56:56;2.80;99.90
3488;DHT22;38546;48.170;11.724;2023-02-15T12:00:22;2.80;99.90
3488;DHT22;38546;48.170;11.724;2023-02-15T12:06:00;2.90;99.90
3488;DHT22;38546;48.170;11.724;2023-02-15T12:08:57;2.90;99.90
3488;DHT22;38546;48.170;11.724;2023-02-15T12:15:00;3.30;99.90
3488;DHT22;38546;48.170;11.724;2023-02-15T12:17:54;3.60;99.90
3488;DHT22;38546;48.170;11.724;2023-02-15T12:20:44;3.60;99.90
3488;DHT22;38546;48.170;11.724;2023-02-15T12:23:33;3.70;99.90
3488;DHT22;38546;48.170;11.724;2023-02-15T12:26:34;3.90;99.90
3488;DHT22;38546;48.170;11.724;2023-02-15T12:29:27;4.00;99.90
3488;DHT22;38546;48.170;11.724;2023-02-15T12:32:59;4.00;99.90
3488;DHT22;38546;48.170;11.724;2023-02-15T12:36:20;4.00;99.90
3488;DHT22;38546;48.170;11.724;2023-02-15T12:39:32;4.00;99.90
3488;DHT22;38546;48.170;11.724;2023-02-15T12:42:22;4.00;99.90
3488;DHT22;38546;48.170;11.724;2023-02-15T12:45:25;4.00;99.90
3488;DHT22;38546;48.170;11.724;2023-02-15T12:48:18;3.80;99.90
3488;DHT22;38546;48.170;11.724;2023-02-15T12:51:12;3.80;99.90
3488;DHT22;38546;48.170;11.724;2023-02-15T12:57:38;3.80;99.90
3488;DHT22;38546;48.170;11.724;2023-02-15T13:00:29;3.90;99.90
3488;DHT22;38546;48.170;11.724;2023-02-15T13:03:21;4.10;99.90
3488;DHT22;38546;48.170;11.724;2023-02-15T13:06:12;4.20;99.90
3488;DHT22;38546;48.170;11.724;2023-02-15T13:10:57;4.10;99.90
3488;DHT22;38546;48.170;11.724;2023-02-15T13:13:55;4.30;99.90
3488;DHT22;38546;48.170;11.724;2023-02-15T13:16:48;4.60;99.90
3488;DHT22;38546;48.170;11.724;2023-02-15T13:19:46;4.50;99.90
3488;DHT22;38546;48.170;11.724;2023-02-15T13:22:40;4.90;99.90
3488;DHT22;38546;48.170;11.724;2023-02-15T13:25:38;5.10;99.90
3488;DHT22;38546;48.170;11.724;2023-02-15T13:28:39;5.40;99.90
3488;DHT22;38546;48.170;11.724;2023-02-15T13:31:31;5.20;99.90
3488;DHT22;38546;48.170;11.724;2023-02-15T13:34:34;5.10;99.90
3488;DHT22;38546;48.170;11.724;2023-02-15T13:42:32;5.20;99.90
3488;DHT22;38546;48.170;11.724;2023-02-15T13:47:21;5.20;99.90
3488;DHT22;38546;48.170;11.724;2023-02-15T14:01:58;5.80;99.90
3488;DHT22;38546;48.170;11.724;2023-02-15T14:11:41;5.90;99.90
3488;DHT22;38546;48.170;11.724;2023-02-15T14:14:51;5.90;99.90
3488;DHT22;38546;48.170;11.724;2023-02-15T14:18:28;5.60;99.90
3488;DHT22;38546;48.170;11.724;2023-02-15T14:21:47;5.50;99.90
3488;DHT22;38546;48.170;11.724;2023-02-15T14:25:28;5.80;99.90
3488;DHT22;38546;48.170;11.724;2023-02-15T14:34:54;5.40;99.90
3488;DHT22;38546;48.170;11.724;2023-02-15T14:39:29;5.70;99.90
3488;DHT22;38546;48.170;11.724;2023-02-15T14:52:16;5.40;99.90
3488;DHT22;38546;48.170;11.724;2023-02-15T14:55:07;5.40;99.90
3488;DHT22;38546;48.170;11.724;2023-02-15T14:57:58;5.40;99.90
3488;DHT22;38546;48.170;11.724;2023-02-15T15:00:47;5.30;99.90
3488;DHT22;38546;48.170;11.724;2023-02-15T15:03:43;5.20;99.90
3488;DHT22;38546;48.170;11.724;2023-02-15T15:06:42;5.50;99.90
3488;DHT22;38546;48.170;11.724;2023-02-15T15:09:36;5.30;99.90
3488;DHT22;38546;48.170;11.724;2023-02-15T15:12:38;5.10;99.90
3488;DHT22;38546;48.170;11.724;2023-02-15T15:15:46;4.80;99.90
3488;DHT22;38546;48.170;11.724;2023-02-15T15:18:48;4.70;99.90
3488;DHT22;38546;48.170;11.724;2023-02-15T15:21:54;4.50;99.90
3488;DHT22;38546;48.170;11.724;2023-02-15T15:24:56;4.30;99.90
3488;DHT22;38546;48.170;11.724;2023-02-15T15:27:53;4.30;99.90
3488;DHT22;38546;48.170;11.724;2023-02-15T15:30:52;4.30;99.90
3488;DHT22;38546;48.170;11.724;2023-02-15T15:42:12;4.10;99.90
3488;DHT22;38546;48.170;11.724;2023-02-15T15:46:11;3.80;99.90
3488;DHT22;38546;48.170;11.724;2023-02-15T15:49:18;3.90;99.90
3488;DHT22;38546;48.170;11.724;2023-02-15T15:52:16;3.80;99.90
3488;DHT22;38546;48.170;11.724;2023-02-15T15:55:15;3.70;99.90
3488;DHT22;38546;48.170;11.724;2023-02-15T15:58:07;3.70;99.90
3488;DHT22;38546;48.170;11.724;2023-02-15T16:01:09;3.60;99.90
3488;DHT22;38546;48.170;11.724;2023-02-15T16:04:02;3.40;99.90
3488;DHT22;38546;48.170;11.724;2023-02-15T16:06:51;3.50;99.90
3488;DHT22;38546;48.170;11.724;2023-02-15T16:09:40;3.70;99.90
3488;DHT22;38546;48.170;11.724;2023-02-15T16:12:32;3.50;99.90
3488;DHT22;38546;48.170;11.724;2023-02-15T16:15:35;3.30;99.90
3488;DHT22;38546;48.170;11.724;2023-02-15T16:18:27;3.20;99.90
3488;DHT22;38546;48.170;11.724;2023-02-15T16:21:19;3.20;99.90
3488;DHT22;38546;48.170;11.724;2023-02-15T16:31:16;3.10;99.90
3488;DHT22;38546;48.170;11.724;2023-02-15T16:34:14;2.90;99.90
3488;DHT22;38546;48.170;11.724;2023-02-15T16:37:17;2.90;99.90
3488;DHT22;38546;48.170;11.724;2023-02-15T16:40:36;2.80;99.90
3488;DHT22;38546;48.170;11.724;2023-02-15T16:43:31;3.00;99.90
3488;DHT22;38546;48.170;11.724;2023-02-15T16:46:40;2.90;99.90
3488;DHT22;38546;48.170;11.724;2023-02-15T16:49:33;2.90;99.90
3488;DHT22;38546;48.170;11.724;2023-02-15T16:52:24;2.90;99.90
3488;DHT22;38546;48.170;11.724;2023-02-15T16:55:26;2.90;99.90
3488;DHT22;38546;48.170;11.724;2023-02-15T16:58:25;2.80;99.90
3488;DHT22;38546;48.170;11.724;2023-02-15T17:01:20;2.80;99.90
3488;DHT22;38546;48.170;11.724;2023-02-15T17:04:26;2.90;99.90
3488;DHT22;38546;48.170;11.724;2023-02-15T17:07:20;2.80;99.90
3488;DHT22;38546;48.170;11.724;2023-02-15T17:10:35;2.70;99.90
3488;DHT22;38546;48.170;11.724;2023-02-15T17:13:28;2.70;99.90
3488;DHT22;38546;48.170;11.724;2023-02-15T17:16:28;2.60;99.90
3488;DHT22;38546;48.170;11.724;2023-02-15T17:19:29;2.50;99.90
3488;DHT22;38546;48.170;11.724;2023-02-15T17:22:41;2.50;99.90
3488;DHT22;38546;48.170;11.724;2023-02-15T17:25:37;2.50;99.90
3488;DHT22;38546;48.170;11.724;2023-02-15T17:28:30;2.50;99.90
3488;DHT22;38546;48.170;11.724;2023-02-15T17:31:20;2.50;99.90
3488;DHT22;38546;48.170;11.724;2023-02-15T17:35:26;2.40;99.90
3488;DHT22;38546;48.170;11.724;2023-02-15T17:38:20;2.50;99.90
3488;DHT22;38546;48.170;11.724;2023-02-15T17:41:09;2.40;99.90
3488;DHT22;38546;48.170;11.724;2023-02-15T17:43:58;2.40;99.90
3488;DHT22;38546;48.170;11.724;2023-02-15T17:46:47;2.50;99.90
3488;DHT22;38546;48.170;11.724;2023-02-15T17:49:36;2.50;99.90
3488;DHT22;38546;48.170;11.724;2023-02-15T17:52:28;2.40;99.90
3488;DHT22;38546;48.170;11.724;2023-02-15T17:55:21;2.40;99.90
3488;DHT22;38546;48.170;11.724;2023-02-15T17:58:23;2.30;99.90
3488;DHT22;38546;48.170;11.724;2023-02-15T18:01:17;2.40;99.90
3488;DHT22;38546;48.170;11.724;2023-02-15T18:04:26;2.30;99.90
3488;DHT22;38546;48.170;11.724;2023-02-15T18:07:34;2.30;99.90
3488;DHT22;38546;48.170;11.724;2023-02-15T18:10:42;2.30;99.90
3488;DHT22;38546;48.170;11.724;2023-02-15T18:13:50;2.10;99.90
3488;DHT22;38546;48.170;11.724;2023-02-15T18:16:41;2.20;99.90
3488;DHT22;38546;48.170;11.724;2023-02-15T18:19:32;2.30;99.90
3488;DHT22;38546;48.170;11.724;2023-02-15T18:22:21;2.00;99.90
3488;DHT22;38546;48.170;11.724;2023-02-15T18:25:13;1.80;99.90
3488;DHT22;38546;48.170;11.724;2023-02-15T18:28:03;1.80;99.90
3488;DHT22;38546;48.170;11.724;2023-02-15T18:30:54;1.50;99.90
3488;DHT22;38546;48.170;11.724;2023-02-15T18:33:54;1.50;99.90
3488;DHT22;38546;48.170;11.724;2023-02-15T18:36:45;1.60;99.90
3488;DHT22;38546;48.170;11.724;2023-02-15T18:39:45;1.50;99.90
3488;DHT22;38546;48.170;11.724;2023-02-15T18:42:36;1.60;99.90
3488;DHT22;38546;48.170;11.724;2023-02-15T18:45:28;1.70;99.90
3488;DHT22;38546;48.170;11.724;2023-02-15T18:48:21;1.70;99.90
3488;DHT22;38546;48.170;11.724;2023-02-15T18:51:20;1.80;99.90
3488;DHT22;38546;48.170;11.724;2023-02-15T18:54:19;1.80;99.90
3488;DHT22;38546;48.170;11.724;2023-02-15T18:57:12;1.80;99.90
3488;DHT22;38546;48.170;11.724;2023-02-15T19:00:05;1.80;99.90
3488;DHT22;38546;48.170;11.724;2023-02-15T19:02:59;1.70;99.90
3488;DHT22;38546;48.170;11.724;2023-02-15T19:05:49;1.80;99.90
3488;DHT22;38546;48.170;11.724;2023-02-15T19:08:39;1.70;99.90
3488;DHT22;38546;48.170;11.724;2023-02-15T19:11:28;1.70;99.90
3488;DHT22;38546;48.170;11.724;2023-02-15T19:14:30;1.60;99.90
3488;DHT22;38546;48.170;11.724;2023-02-15T19:17:21;1.60;99.90
3488;DHT22;38546;48.170;11.724;2023-02-15T19:20:16;1.50;99.90
3488;DHT22;38546;48.170;11.724;2023-02-15T19:23:20;1.60;99.90
3488;DHT22;38546;48.170;11.724;2023-02-15T19:26:10;1.50;99.90
3488;DHT22;38546;48.170;11.724;2023-02-15T19:29:00;1.50;99.90
3488;DHT22;38546;48.170;11.724;2023-02-15T19:31:50;1.50;99.90
3488;DHT22;38546;48.170;11.724;2023-02-15T19:34:39;1.40;99.90
3488;DHT22;38546;48.170;11.724;2023-02-15T19:37:38;1.40;99.90
3488;DHT22;38546;48.170;11.724;2023-02-15T19:40:33;1.10;99.90
3488;DHT22;38546;48.170;11.724;2023-02-15T19:43:23;1.10;99.90
3488;DHT22;38546;48.170;11.724;2023-02-15T19:46:15;1.10;99.90
3488;DHT22;38546;48.170;11.724;2023-02-15T19:49:07;1.10;99.90
3488;DHT22;38546;48.170;11.724;2023-02-15T19:51:58;1.20;99.90
3488;DHT22;38546;48.170;11.724;2023-02-15T19:54:48;1.20;99.90
3488;DHT22;38546;48.170;11.724;2023-02-15T19:57:37;1.20;99.90
3488;DHT22;38546;48.170;11.724;2023-02-15T20:00:30;1.20;99.90
3488;DHT22;38546;48.170;11.724;2023-02-15T20:03:21;1.20;99.90
3488;DHT22;38546;48.170;11.724;2023-02-15T20:06:14;1.20;99.90
3488;DHT22;38546;48.170;11.724;2023-02-15T20:09:03;1.20;99.90
3488;DHT22;38546;48.170;11.724;2023-02-15T20:11:54;1.20;99.90
3488;DHT22;38546;48.170;11.724;2023-02-15T20:14:43;1.10;99.90
3488;DHT22;38546;48.170;11.724;2023-02-15T20:17:32;1.10;99.90
3488;DHT22;38546;48.170;11.724;2023-02-15T20:20:48;1.20;99.90
3488;DHT22;38546;48.170;11.724;2023-02-15T20:23:39;1.10;99.90
3488;DHT22;38546;48.170;11.724;2023-02-15T20:26:28;1.20;99.90
3488;DHT22;38546;48.170;11.724;2023-02-15T20:29:19;1.10;99.90
3488;DHT22;38546;48.170;11.724;2023-02-15T20:32:09;1.10;99.90
3488;DHT22;38546;48.170;11.724;2023-02-15T20:34:58;1.10;99.90
3488;DHT22;38546;48.170;11.724;2023-02-15T20:37:52;1.10;99.90
3488;DHT22;38546;48.170;11.724;2023-02-15T20:40:43;1.00;99.90
3488;DHT22;38546;48.170;11.724;2023-02-15T20:44:25;1.00;99.90
3488;DHT22;38546;48.170;11.724;2023-02-15T20:47:17;0.90;99.90
3488;DHT22;38546;48.170;11.724;2023-02-15T20:50:07;1.00;99.90
3488;DHT22;38546;48.170;11.724;2023-02-15T20:52:58;0.90;99.90
3488;DHT22;38546;48.170;11.724;2023-02-15T20:55:48;0.90;99.90
3488;DHT22;38546;48.170;11.724;2023-02-15T20:58:37;0.90;99.90
3488;DHT22;38546;48.170;11.724;2023-02-15T21:01:27;0.80;99.90
3488;DHT22;38546;48.170;11.724;2023-02-15T21:04:22;0.80;99.90
3488;DHT22;38546;48.170;11.724;2023-02-15T21:07:18;0.70;99.90
3488;DHT22;38546;48.170;11.724;2023-02-15T21:10:17;0.70;99.90
3488;DHT22;38546;48.170;11.724;2023-02-15T21:13:22;0.70;99.90